sensor_id;sensor_type;location;lat;lon;timestamp;P1;durP1;ratioP1;P2;durP2;ratioP2
21890;SDS011;11110;52.386;16.940;2023-01-01T00:00:12;19.52;;;12.23;;
21890;SDS011;11110;52.386;16.940;2023-01-01T00:03:01;16.90;;;12.27;;
21890;SDS011;11110;52.386;16.940;2023-01-01T00:05:30;20.00;;;12.63;;
21890;SDS011;11110;52.386;16.940;2023-01-01T00:07:59;17.63;;;11.88;;
21890;SDS011;11110;52.386;16.940;2023-01-01T00:10:31;17.55;;;12.23;;
21890;SDS011;11110;52.386;16.940;2023-01-01T00:13:00;16.20;;;11.07;;
21890;SDS011;11110;52.386;16.940;2023-01-01T00:15:30;12.57;;;8.90;;
21890;SDS011;11110;52.386;16.940;2023-01-01T00:17:58;14.23;;;9.57;;
21890;SDS011;11110;52.386;16.940;2023-01-01T00:20:27;15.10;;;9.10;;
21890;SDS011;11110;52.386;16.940;2023-01-01T00:23:01;12.43;;;8.40;;
21890;SDS011;11110;52.386;16.940;2023-01-01T00:25:30;13.43;;;7.72;;
21890;SDS011;11110;52.386;16.940;2023-01-01T00:27:58;11.82;;;7.75;;
21890;SDS011;11110;52.386;16.940;2023-01-01T00:30:29;8.73;;;6.65;;
21890;SDS011;11110;52.386;16.940;2023-01-01T00:32:58;9.63;;;6.50;;
21890;SDS011;11110;52.386;16.940;2023-01-01T00:35:26;11.90;;;7.03;;
21890;SDS011;11110;52.386;16.940;2023-01-01T00:37:55;11.55;;;7.18;;
21890;SDS011;11110;52.386;16.940;2023-01-01T00:40:24;10.35;;;7.35;;
21890;SDS011;11110;52.386;16.940;2023-01-01T00:42:52;9.20;;;6.22;;
21890;SDS011;11110;52.386;16.940;2023-01-01T00:45:21;9.73;;;7.20;;
21890;SDS011;11110;52.386;16.940;2023-01-01T00:47:51;9.55;;;7.00;;
21890;SDS011;11110;52.386;16.940;2023-01-01T00:50:21;7.90;;;6.07;;
21890;SDS011;11110;52.386;16.940;2023-01-01T00:52:49;8.15;;;5.90;;
21890;SDS011;11110;52.386;16.940;2023-01-01T00:55:18;8.30;;;5.93;;
21890;SDS011;11110;52.386;16.940;2023-01-01T00:57:47;8.65;;;5.50;;
21890;SDS011;11110;52.386;16.940;2023-01-01T01:00:16;8.40;;;4.43;;
21890;SDS011;11110;52.386;16.940;2023-01-01T01:02:46;6.45;;;4.30;;
21890;SDS011;11110;52.386;16.940;2023-01-01T01:05:17;4.88;;;3.58;;
21890;SDS011;11110;52.386;16.940;2023-01-01T01:07:46;6.43;;;3.50;;
21890;SDS011;11110;52.386;16.940;2023-01-01T01:10:15;9.05;;;4.10;;
21890;SDS011;11110;52.386;16.940;2023-01-01T01:12:46;5.35;;;3.28;;
21890;SDS011;11110;52.386;16.940;2023-01-01T01:15:15;4.43;;;3.10;;
21890;SDS011;11110;52.386;16.940;2023-01-01T01:17:44;4.82;;;2.92;;
21890;SDS011;11110;52.386;16.940;2023-01-01T01:20:14;4.78;;;3.22;;
21890;SDS011;11110;52.386;16.940;2023-01-01T01:22:44;3.30;;;2.95;;
21890;SDS011;11110;52.386;16.940;2023-01-01T01:25:13;6.00;;;3.08;;
21890;SDS011;11110;52.386;16.940;2023-01-01T01:27:42;4.22;;;2.80;;
21890;SDS011;11110;52.386;16.940;2023-01-01T01:30:11;4.78;;;2.50;;
21890;SDS011;11110;52.386;16.940;2023-01-01T01:32:40;5.95;;;3.00;;
21890;SDS011;11110;52.386;16.940;2023-01-01T01:35:08;3.75;;;2.83;;
21890;SDS011;11110;52.386;16.940;2023-01-01T01:37:37;3.72;;;2.70;;
21890;SDS011;11110;52.386;16.940;2023-01-01T01:40:08;4.60;;;3.20;;
21890;SDS011;11110;52.386;16.940;2023-01-01T01:42:38;5.28;;;2.60;;
21890;SDS011;11110;52.386;16.940;2023-01-01T01:45:07;5.13;;;3.17;;
21890;SDS011;11110;52.386;16.940;2023-01-01T01:47:38;4.47;;;3.28;;
21890;SDS011;11110;52.386;16.940;2023-01-01T01:50:14;4.90;;;2.85;;
21890;SDS011;11110;52.386;16.940;2023-01-01T01:52:46;4.50;;;2.92;;
21890;SDS011;11110;52.386;16.940;2023-01-01T01:55:31;3.70;;;2.53;;
21890;SDS011;11110;52.386;16.940;2023-01-01T01:58:02;5.20;;;3.10;;
21890;SDS011;11110;52.386;16.940;2023-01-01T02:00:32;4.90;;;3.47;;
21890;SDS011;11110;52.386;16.940;2023-01-01T02:03:01;3.80;;;3.05;;
21890;SDS011;11110;52.386;16.940;2023-01-01T02:05:34;5.57;;;3.45;;
21890;SDS011;11110;52.386;16.940;2023-01-01T02:08:04;6.20;;;3.03;;
21890;SDS011;11110;52.386;16.940;2023-01-01T02:10:35;3.55;;;2.75;;
21890;SDS011;11110;52.386;16.940;2023-01-01T02:13:04;4.88;;;3.20;;
21890;SDS011;11110;52.386;16.940;2023-01-01T02:15:33;4.07;;;2.92;;
21890;SDS011;11110;52.386;16.940;2023-01-01T02:18:08;4.03;;;2.83;;
21890;SDS011;11110;52.386;16.940;2023-01-01T02:20:40;4.68;;;3.20;;
21890;SDS011;11110;52.386;16.940;2023-01-01T02:23:27;6.68;;;3.10;;
21890;SDS011;11110;52.386;16.940;2023-01-01T02:26:27;4.30;;;3.17;;
21890;SDS011;11110;52.386;16.940;2023-01-01T02:29:18;6.05;;;3.50;;
21890;SDS011;11110;52.386;16.940;2023-01-01T02:31:52;4.65;;;2.80;;
21890;SDS011;11110;52.386;16.940;2023-01-01T02:34:28;6.22;;;3.42;;
21890;SDS011;11110;52.386;16.940;2023-01-01T02:37:02;5.15;;;2.90;;
21890;SDS011;11110;52.386;16.940;2023-01-01T02:39:34;3.50;;;2.53;;
21890;SDS011;11110;52.386;16.940;2023-01-01T02:42:09;4.22;;;2.65;;
21890;SDS011;11110;52.386;16.940;2023-01-01T02:44:40;4.88;;;3.67;;
21890;SDS011;11110;52.386;16.940;2023-01-01T02:47:13;5.15;;;3.53;;
21890;SDS011;11110;52.386;16.940;2023-01-01T02:49:48;8.13;;;4.88;;
21890;SDS011;11110;52.386;16.940;2023-01-01T02:52:35;4.45;;;2.45;;
21890;SDS011;11110;52.386;16.940;2023-01-01T02:55:31;3.25;;;2.47;;
21890;SDS011;11110;52.386;16.940;2023-01-01T02:58:13;4.72;;;2.65;;
21890;SDS011;11110;52.386;16.940;2023-01-01T03:01:07;3.70;;;2.67;;
21890;SDS011;11110;52.386;16.940;2023-01-01T03:03:43;6.22;;;3.25;;
21890;SDS011;11110;52.386;16.940;2023-01-01T03:06:22;3.95;;;2.55;;
21890;SDS011;11110;52.386;16.940;2023-01-01T03:09:00;7.55;;;3.30;;
21890;SDS011;11110;52.386;16.940;2023-01-01T03:11:36;3.22;;;2.83;;
21890;SDS011;11110;52.386;16.940;2023-01-01T03:14:14;7.32;;;3.70;;
21890;SDS011;11110;52.386;16.940;2023-01-01T03:16:49;6.22;;;3.40;;
21890;SDS011;11110;52.386;16.940;2023-01-01T03:19:24;4.55;;;3.10;;
21890;SDS011;11110;52.386;16.940;2023-01-01T03:21:56;5.45;;;3.22;;
21890;SDS011;11110;52.386;16.940;2023-01-01T03:24:29;7.20;;;3.65;;
21890;SDS011;11110;52.386;16.940;2023-01-01T03:27:01;5.90;;;3.97;;
21890;SDS011;11110;52.386;16.940;2023-01-01T03:29:34;6.47;;;3.67;;
21890;SDS011;11110;52.386;16.940;2023-01-01T03:32:10;9.02;;;4.57;;
21890;SDS011;11110;52.386;16.940;2023-01-01T03:34:43;6.80;;;3.92;;
21890;SDS011;11110;52.386;16.940;2023-01-01T03:37:18;5.75;;;3.28;;
21890;SDS011;11110;52.386;16.940;2023-01-01T03:39:52;4.78;;;3.38;;
21890;SDS011;11110;52.386;16.940;2023-01-01T03:42:25;5.72;;;3.78;;
21890;SDS011;11110;52.386;16.940;2023-01-01T03:44:59;5.88;;;4.13;;
21890;SDS011;11110;52.386;16.940;2023-01-01T03:47:33;5.85;;;3.78;;
21890;SDS011;11110;52.386;16.940;2023-01-01T03:50:02;7.38;;;4.63;;
21890;SDS011;11110;52.386;16.940;2023-01-01T03:52:35;5.93;;;4.20;;
21890;SDS011;11110;52.386;16.940;2023-01-01T03:55:11;6.78;;;4.10;;
21890;SDS011;11110;52.386;16.940;2023-01-01T03:57:49;8.35;;;4.75;;
21890;SDS011;11110;52.386;16.940;2023-01-01T04:00:24;6.32;;;4.38;;
21890;SDS011;11110;52.386;16.940;2023-01-01T04:02:59;8.85;;;4.85;;
21890;SDS011;11110;52.386;16.940;2023-01-01T04:05:35;10.02;;;4.88;;
21890;SDS011;11110;52.386;16.940;2023-01-01T04:08:06;5.55;;;4.10;;
21890;SDS011;11110;52.386;16.940;2023-01-01T04:10:37;7.10;;;4.50;;
21890;SDS011;11110;52.386;16.940;2023-01-01T04:13:09;8.43;;;4.57;;
21890;SDS011;11110;52.386;16.940;2023-01-01T04:15:38;6.43;;;4.60;;
21890;SDS011;11110;52.386;16.940;2023-01-01T04:18:08;7.93;;;5.07;;
21890;SDS011;11110;52.386;16.940;2023-01-01T04:20:37;7.57;;;4.72;;
21890;SDS011;11110;52.386;16.940;2023-01-01T04:23:05;7.00;;;4.30;;
21890;SDS011;11110;52.386;16.940;2023-01-01T04:25:34;8.20;;;5.28;;
21890;SDS011;11110;52.386;16.940;2023-01-01T04:28:03;9.98;;;5.88;;
21890;SDS011;11110;52.386;16.940;2023-01-01T04:30:31;7.20;;;4.80;;
21890;SDS011;11110;52.386;16.940;2023-01-01T04:33:02;10.40;;;5.93;;
21890;SDS011;11110;52.386;16.940;2023-01-01T04:35:32;9.80;;;5.15;;
21890;SDS011;11110;52.386;16.940;2023-01-01T04:38:00;9.00;;;5.88;;
21890;SDS011;11110;52.386;16.940;2023-01-01T04:40:29;9.32;;;5.97;;
21890;SDS011;11110;52.386;16.940;2023-01-01T04:42:58;7.65;;;5.38;;
21890;SDS011;11110;52.386;16.940;2023-01-01T04:45:26;9.15;;;5.53;;
21890;SDS011;11110;52.386;16.940;2023-01-01T04:47:55;9.35;;;5.50;;
21890;SDS011;11110;52.386;16.940;2023-01-01T04:50:24;7.90;;;5.47;;
21890;SDS011;11110;52.386;16.940;2023-01-01T04:52:54;7.57;;;5.40;;
21890;SDS011;11110;52.386;16.940;2023-01-01T04:55:22;7.03;;;4.93;;
21890;SDS011;11110;52.386;16.940;2023-01-01T04:57:51;7.10;;;4.90;;
21890;SDS011;11110;52.386;16.940;2023-01-01T05:00:20;10.93;;;5.65;;
21890;SDS011;11110;52.386;16.940;2023-01-01T05:02:49;8.05;;;5.05;;
21890;SDS011;11110;52.386;16.940;2023-01-01T05:05:17;9.32;;;5.38;;
21890;SDS011;11110;52.386;16.940;2023-01-01T05:07:49;8.43;;;5.35;;
21890;SDS011;11110;52.386;16.940;2023-01-01T05:10:19;8.32;;;5.53;;
21890;SDS011;11110;52.386;16.940;2023-01-01T05:12:47;6.63;;;5.10;;
21890;SDS011;11110;52.386;16.940;2023-01-01T05:15:16;10.45;;;5.22;;
21890;SDS011;11110;52.386;16.940;2023-01-01T05:17:44;7.03;;;5.05;;
21890;SDS011;11110;52.386;16.940;2023-01-01T05:20:13;7.97;;;5.00;;
21890;SDS011;11110;52.386;16.940;2023-01-01T05:22:44;7.38;;;4.22;;
21890;SDS011;11110;52.386;16.940;2023-01-01T05:25:13;6.90;;;4.03;;
21890;SDS011;11110;52.386;16.940;2023-01-01T05:27:43;8.10;;;4.97;;
21890;SDS011;11110;52.386;16.940;2023-01-01T05:30:12;6.35;;;4.63;;
21890;SDS011;11110;52.386;16.940;2023-01-01T05:32:40;6.03;;;4.30;;
21890;SDS011;11110;52.386;16.940;2023-01-01T05:35:09;7.82;;;4.60;;
21890;SDS011;11110;52.386;16.940;2023-01-01T05:37:38;8.75;;;4.50;;
21890;SDS011;11110;52.386;16.940;2023-01-01T05:40:07;7.70;;;3.92;;
21890;SDS011;11110;52.386;16.940;2023-01-01T05:42:36;7.53;;;4.97;;
21890;SDS011;11110;52.386;16.940;2023-01-01T05:45:07;7.43;;;4.80;;
21890;SDS011;11110;52.386;16.940;2023-01-01T05:47:36;7.93;;;4.15;;
21890;SDS011;11110;52.386;16.940;2023-01-01T05:50:05;6.40;;;4.35;;
21890;SDS011;11110;52.386;16.940;2023-01-01T05:52:33;9.85;;;4.32;;
21890;SDS011;11110;52.386;16.940;2023-01-01T05:55:03;6.18;;;4.18;;
21890;SDS011;11110;52.386;16.940;2023-01-01T05:57:31;9.88;;;4.45;;
21890;SDS011;11110;52.386;16.940;2023-01-01T06:00:00;5.95;;;4.05;;
21890;SDS011;11110;52.386;16.940;2023-01-01T06:02:33;4.47;;;3.42;;
21890;SDS011;11110;52.386;16.940;2023-01-01T06:05:04;6.20;;;4.10;;
21890;SDS011;11110;52.386;16.940;2023-01-01T06:07:33;8.10;;;5.20;;
21890;SDS011;11110;52.386;16.940;2023-01-01T06:10:01;8.23;;;3.75;;
21890;SDS011;11110;52.386;16.940;2023-01-01T06:12:30;11.13;;;4.13;;
21890;SDS011;11110;52.386;16.940;2023-01-01T06:14:59;4.95;;;3.70;;
21890;SDS011;11110;52.386;16.940;2023-01-01T06:17:28;5.97;;;3.83;;
21890;SDS011;11110;52.386;16.940;2023-01-01T06:19:58;5.53;;;3.85;;
21890;SDS011;11110;52.386;16.940;2023-01-01T06:22:27;7.00;;;3.97;;
21890;SDS011;11110;52.386;16.940;2023-01-01T06:24:55;7.65;;;3.95;;
21890;SDS011;11110;52.386;16.940;2023-01-01T06:27:24;6.65;;;3.63;;
21890;SDS011;11110;52.386;16.940;2023-01-01T06:29:53;6.35;;;4.28;;
21890;SDS011;11110;52.386;16.940;2023-01-01T06:32:23;7.57;;;3.75;;
21890;SDS011;11110;52.386;16.940;2023-01-01T06:34:51;8.13;;;4.68;;
21890;SDS011;11110;52.386;16.940;2023-01-01T06:37:21;6.22;;;3.38;;
21890;SDS011;11110;52.386;16.940;2023-01-01T06:39:50;6.35;;;3.20;;
21890;SDS011;11110;52.386;16.940;2023-01-01T06:42:18;6.03;;;3.78;;
21890;SDS011;11110;52.386;16.940;2023-01-01T06:44:47;7.57;;;3.60;;
21890;SDS011;11110;52.386;16.940;2023-01-01T06:47:16;8.52;;;3.80;;
21890;SDS011;11110;52.386;16.940;2023-01-01T06:49:47;6.43;;;3.83;;
21890;SDS011;11110;52.386;16.940;2023-01-01T06:52:15;5.82;;;3.65;;
21890;SDS011;11110;52.386;16.940;2023-01-01T06:54:46;5.38;;;3.05;;
21890;SDS011;11110;52.386;16.940;2023-01-01T06:57:14;10.40;;;3.70;;
21890;SDS011;11110;52.386;16.940;2023-01-01T06:59:43;6.70;;;3.70;;
21890;SDS011;11110;52.386;16.940;2023-01-01T07:02:11;8.30;;;3.05;;
21890;SDS011;11110;52.386;16.940;2023-01-01T07:04:40;9.90;;;3.90;;
21890;SDS011;11110;52.386;16.940;2023-01-01T07:07:09;5.30;;;3.17;;
21890;SDS011;11110;52.386;16.940;2023-01-01T07:09:38;6.95;;;3.20;;
21890;SDS011;11110;52.386;16.940;2023-01-01T07:12:08;6.70;;;3.20;;
21890;SDS011;11110;52.386;16.940;2023-01-01T07:14:36;7.43;;;3.38;;
21890;SDS011;11110;52.386;16.940;2023-01-01T07:17:05;5.20;;;3.20;;
21890;SDS011;11110;52.386;16.940;2023-01-01T07:19:33;4.45;;;2.88;;
21890;SDS011;11110;52.386;16.940;2023-01-01T07:22:02;7.80;;;3.05;;
21890;SDS011;11110;52.386;16.940;2023-01-01T07:24:31;6.95;;;3.70;;
21890;SDS011;11110;52.386;16.940;2023-01-01T07:26:59;6.82;;;3.65;;
21890;SDS011;11110;52.386;16.940;2023-01-01T07:29:29;5.13;;;3.17;;
21890;SDS011;11110;52.386;16.940;2023-01-01T07:32:00;7.22;;;4.00;;
21890;SDS011;11110;52.386;16.940;2023-01-01T07:34:30;6.35;;;3.47;;
21890;SDS011;11110;52.386;16.940;2023-01-01T07:36:58;5.93;;;3.05;;
21890;SDS011;11110;52.386;16.940;2023-01-01T07:39:27;7.82;;;3.92;;
21890;SDS011;11110;52.386;16.940;2023-01-01T07:41:56;6.38;;;3.20;;
21890;SDS011;11110;52.386;16.940;2023-01-01T07:44:25;7.35;;;3.25;;
21890;SDS011;11110;52.386;16.940;2023-01-01T07:47:01;6.72;;;3.35;;
21890;SDS011;11110;52.386;16.940;2023-01-01T07:49:30;5.97;;;3.78;;
21890;SDS011;11110;52.386;16.940;2023-01-01T07:52:02;6.38;;;3.97;;
21890;SDS011;11110;52.386;16.940;2023-01-01T07:54:30;6.13;;;3.42;;
21890;SDS011;11110;52.386;16.940;2023-01-01T07:56:59;7.55;;;4.45;;
21890;SDS011;11110;52.386;16.940;2023-01-01T07:59:28;5.82;;;3.70;;
21890;SDS011;11110;52.386;16.940;2023-01-01T08:01:57;8.75;;;3.95;;
21890;SDS011;11110;52.386;16.940;2023-01-01T08:04:27;5.72;;;3.15;;
21890;SDS011;11110;52.386;16.940;2023-01-01T08:06:56;6.03;;;3.08;;
21890;SDS011;11110;52.386;16.940;2023-01-01T08:09:24;8.95;;;4.05;;
21890;SDS011;11110;52.386;16.940;2023-01-01T08:11:53;8.07;;;3.40;;
21890;SDS011;11110;52.386;16.940;2023-01-01T08:14:24;5.55;;;4.10;;
21890;SDS011;11110;52.386;16.940;2023-01-01T08:16:52;7.82;;;4.13;;
21890;SDS011;11110;52.386;16.940;2023-01-01T08:19:21;9.23;;;4.10;;
21890;SDS011;11110;52.386;16.940;2023-01-01T08:21:51;6.90;;;3.30;;
21890;SDS011;11110;52.386;16.940;2023-01-01T08:24:20;6.93;;;3.50;;
21890;SDS011;11110;52.386;16.940;2023-01-01T08:26:48;8.68;;;3.20;;
21890;SDS011;11110;52.386;16.940;2023-01-01T08:29:17;6.55;;;2.88;;
21890;SDS011;11110;52.386;16.940;2023-01-01T08:31:46;4.65;;;2.88;;
21890;SDS011;11110;52.386;16.940;2023-01-01T08:34:15;4.22;;;3.00;;
21890;SDS011;11110;52.386;16.940;2023-01-01T08:36:43;7.20;;;2.90;;
21890;SDS011;11110;52.386;16.940;2023-01-01T08:39:13;6.40;;;3.22;;
21890;SDS011;11110;52.386;16.940;2023-01-01T08:41:42;5.20;;;3.00;;
21890;SDS011;11110;52.386;16.940;2023-01-01T08:44:10;5.43;;;2.63;;
21890;SDS011;11110;52.386;16.940;2023-01-01T08:46:39;7.00;;;2.67;;
21890;SDS011;11110;52.386;16.940;2023-01-01T08:49:08;5.50;;;3.17;;
21890;SDS011;11110;52.386;16.940;2023-01-01T08:51:36;6.75;;;3.50;;
21890;SDS011;11110;52.386;16.940;2023-01-01T08:54:05;6.97;;;2.47;;
21890;SDS011;11110;52.386;16.940;2023-01-01T08:56:36;8.13;;;3.88;;
21890;SDS011;11110;52.386;16.940;2023-01-01T08:59:05;5.40;;;3.13;;
21890;SDS011;11110;52.386;16.940;2023-01-01T09:01:33;6.85;;;2.80;;
21890;SDS011;11110;52.386;16.940;2023-01-01T09:04:02;5.57;;;2.95;;
21890;SDS011;11110;52.386;16.940;2023-01-01T09:06:41;5.55;;;2.60;;
21890;SDS011;11110;52.386;16.940;2023-01-01T09:09:09;6.30;;;3.30;;
21890;SDS011;11110;52.386;16.940;2023-01-01T09:11:39;8.55;;;3.03;;
21890;SDS011;11110;52.386;16.940;2023-01-01T09:14:17;7.53;;;2.97;;
21890;SDS011;11110;52.386;16.940;2023-01-01T09:16:46;5.25;;;3.05;;
21890;SDS011;11110;52.386;16.940;2023-01-01T09:19:15;6.50;;;3.25;;
21890;SDS011;11110;52.386;16.940;2023-01-01T09:21:43;4.75;;;3.20;;
21890;SDS011;11110;52.386;16.940;2023-01-01T09:24:13;7.53;;;3.33;;
21890;SDS011;11110;52.386;16.940;2023-01-01T09:26:43;5.82;;;3.42;;
21890;SDS011;11110;52.386;16.940;2023-01-01T09:29:13;9.88;;;3.50;;
21890;SDS011;11110;52.386;16.940;2023-01-01T09:31:44;6.20;;;3.22;;
21890;SDS011;11110;52.386;16.940;2023-01-01T09:34:13;5.15;;;2.65;;
21890;SDS011;11110;52.386;16.940;2023-01-01T09:36:44;6.40;;;3.08;;
21890;SDS011;11110;52.386;16.940;2023-01-01T09:39:14;8.20;;;3.38;;
21890;SDS011;11110;52.386;16.940;2023-01-01T09:41:48;5.97;;;3.05;;
21890;SDS011;11110;52.386;16.940;2023-01-01T09:44:28;6.55;;;3.03;;
21890;SDS011;11110;52.386;16.940;2023-01-01T09:47:15;7.22;;;3.08;;
21890;SDS011;11110;52.386;16.940;2023-01-01T09:49:49;6.10;;;2.90;;
21890;SDS011;11110;52.386;16.940;2023-01-01T09:52:19;6.30;;;3.53;;
21890;SDS011;11110;52.386;16.940;2023-01-01T09:54:49;4.88;;;3.05;;
21890;SDS011;11110;52.386;16.940;2023-01-01T09:57:25;5.40;;;2.83;;
21890;SDS011;11110;52.386;16.940;2023-01-01T09:59:57;6.55;;;3.42;;
21890;SDS011;11110;52.386;16.940;2023-01-01T10:02:31;7.15;;;2.85;;
21890;SDS011;11110;52.386;16.940;2023-01-01T10:05:20;8.82;;;3.83;;
21890;SDS011;11110;52.386;16.940;2023-01-01T10:07:58;8.45;;;3.53;;
21890;SDS011;11110;52.386;16.940;2023-01-01T10:10:33;4.45;;;3.00;;
21890;SDS011;11110;52.386;16.940;2023-01-01T10:13:09;6.47;;;3.78;;
21890;SDS011;11110;52.386;16.940;2023-01-01T10:15:52;6.78;;;3.35;;
21890;SDS011;11110;52.386;16.940;2023-01-01T10:18:25;10.02;;;3.47;;
21890;SDS011;11110;52.386;16.940;2023-01-01T10:21:01;6.47;;;3.75;;
21890;SDS011;11110;52.386;16.940;2023-01-01T10:23:34;6.90;;;3.38;;
21890;SDS011;11110;52.386;16.940;2023-01-01T10:26:11;5.97;;;3.25;;
21890;SDS011;11110;52.386;16.940;2023-01-01T10:28:47;5.00;;;3.50;;
21890;SDS011;11110;52.386;16.940;2023-01-01T10:31:26;5.22;;;3.22;;
21890;SDS011;11110;52.386;16.940;2023-01-01T10:33:57;6.70;;;4.07;;
21890;SDS011;11110;52.386;16.940;2023-01-01T10:36:39;5.88;;;3.75;;
21890;SDS011;11110;52.386;16.940;2023-01-01T10:39:10;7.90;;;3.85;;
21890;SDS011;11110;52.386;16.940;2023-01-01T10:41:42;8.65;;;4.05;;
21890;SDS011;11110;52.386;16.940;2023-01-01T10:44:13;4.72;;;3.53;;
21890;SDS011;11110;52.386;16.940;2023-01-01T10:46:45;6.47;;;3.75;;
21890;SDS011;11110;52.386;16.940;2023-01-01T10:49:17;4.70;;;3.05;;
21890;SDS011;11110;52.386;16.940;2023-01-01T10:51:47;6.75;;;4.30;;
21890;SDS011;11110;52.386;16.940;2023-01-01T10:54:22;7.63;;;3.97;;
21890;SDS011;11110;52.386;16.940;2023-01-01T10:56:58;5.65;;;3.85;;
21890;SDS011;11110;52.386;16.940;2023-01-01T10:59:41;7.15;;;3.35;;
21890;SDS011;11110;52.386;16.940;2023-01-01T11:02:20;8.65;;;3.75;;
21890;SDS011;11110;52.386;16.940;2023-01-01T11:04:51;7.28;;;3.85;;
21890;SDS011;11110;52.386;16.940;2023-01-01T11:07:46;7.60;;;4.07;;
21890;SDS011;11110;52.386;16.940;2023-01-01T11:10:16;6.03;;;3.97;;
21890;SDS011;11110;52.386;16.940;2023-01-01T11:12:47;9.68;;;4.30;;
21890;SDS011;11110;52.386;16.940;2023-01-01T11:15:36;7.93;;;3.70;;
21890;SDS011;11110;52.386;16.940;2023-01-01T11:18:10;7.65;;;4.45;;
21890;SDS011;11110;52.386;16.940;2023-01-01T11:20:41;9.52;;;4.63;;
21890;SDS011;11110;52.386;16.940;2023-01-01T11:23:17;7.15;;;3.97;;
21890;SDS011;11110;52.386;16.940;2023-01-01T11:25:57;12.23;;;4.13;;
21890;SDS011;11110;52.386;16.940;2023-01-01T11:28:29;7.45;;;4.20;;
21890;SDS011;11110;52.386;16.940;2023-01-01T11:31:05;8.93;;;4.10;;
21890;SDS011;11110;52.386;16.940;2023-01-01T11:33:45;5.78;;;4.32;;
21890;SDS011;11110;52.386;16.940;2023-01-01T11:36:19;7.55;;;3.80;;
21890;SDS011;11110;52.386;16.940;2023-01-01T11:38:50;9.70;;;5.15;;
21890;SDS011;11110;52.386;16.940;2023-01-01T11:41:42;9.00;;;4.72;;
21890;SDS011;11110;52.386;16.940;2023-01-01T11:44:20;7.72;;;4.25;;
21890;SDS011;11110;52.386;16.940;2023-01-01T11:46:53;9.80;;;4.93;;
21890;SDS011;11110;52.386;16.940;2023-01-01T11:49:24;6.07;;;4.30;;
21890;SDS011;11110;52.386;16.940;2023-01-01T11:51:55;5.88;;;3.85;;
21890;SDS011;11110;52.386;16.940;2023-01-01T11:54:28;7.95;;;3.90;;
21890;SDS011;11110;52.386;16.940;2023-01-01T11:57:03;12.80;;;5.82;;
21890;SDS011;11110;52.386;16.940;2023-01-01T11:59:40;10.07;;;5.28;;
21890;SDS011;11110;52.386;16.940;2023-01-01T12:02:16;9.75;;;5.45;;
21890;SDS011;11110;52.386;16.940;2023-01-01T12:04:51;6.95;;;3.92;;
21890;SDS011;11110;52.386;16.940;2023-01-01T12:07:27;10.35;;;5.55;;
21890;SDS011;11110;52.386;16.940;2023-01-01T12:10:02;8.43;;;5.13;;
21890;SDS011;11110;52.386;16.940;2023-01-01T12:12:33;7.70;;;4.38;;
21890;SDS011;11110;52.386;16.940;2023-01-01T12:15:10;7.70;;;4.85;;
21890;SDS011;11110;52.386;16.940;2023-01-01T12:17:46;9.70;;;4.72;;
21890;SDS011;11110;52.386;16.940;2023-01-01T12:20:28;7.50;;;5.13;;
21890;SDS011;11110;52.386;16.940;2023-01-01T12:23:01;10.45;;;4.72;;
21890;SDS011;11110;52.386;16.940;2023-01-01T12:25:31;7.40;;;4.40;;
21890;SDS011;11110;52.386;16.940;2023-01-01T12:28:09;8.98;;;4.68;;
21890;SDS011;11110;52.386;16.940;2023-01-01T12:30:50;10.40;;;5.20;;
21890;SDS011;11110;52.386;16.940;2023-01-01T12:33:38;7.55;;;4.43;;
21890;SDS011;11110;52.386;16.940;2023-01-01T12:36:21;7.82;;;4.65;;
21890;SDS011;11110;52.386;16.940;2023-01-01T12:42:07;10.73;;;5.28;;
21890;SDS011;11110;52.386;16.940;2023-01-01T12:44:43;7.82;;;4.68;;
21890;SDS011;11110;52.386;16.940;2023-01-01T12:47:21;7.28;;;4.60;;
21890;SDS011;11110;52.386;16.940;2023-01-01T12:50:07;7.30;;;4.70;;
21890;SDS011;11110;52.386;16.940;2023-01-01T12:52:45;7.43;;;4.78;;
21890;SDS011;11110;52.386;16.940;2023-01-01T12:55:39;9.35;;;4.45;;
21890;SDS011;11110;52.386;16.940;2023-01-01T12:58:28;7.25;;;4.93;;
21890;SDS011;11110;52.386;16.940;2023-01-01T13:01:03;9.63;;;5.07;;
21890;SDS011;11110;52.386;16.940;2023-01-01T13:03:41;8.95;;;4.80;;
21890;SDS011;11110;52.386;16.940;2023-01-01T13:06:19;9.55;;;5.53;;
21890;SDS011;11110;52.386;16.940;2023-01-01T13:08:55;7.93;;;4.97;;
21890;SDS011;11110;52.386;16.940;2023-01-01T13:11:30;9.85;;;4.53;;
21890;SDS011;11110;52.386;16.940;2023-01-01T13:14:08;12.65;;;5.18;;
21890;SDS011;11110;52.386;16.940;2023-01-01T13:16:39;8.25;;;4.90;;
21890;SDS011;11110;52.386;16.940;2023-01-01T13:19:21;8.70;;;5.80;;
21890;SDS011;11110;52.386;16.940;2023-01-01T13:21:54;8.80;;;5.32;;
21890;SDS011;11110;52.386;16.940;2023-01-01T13:24:23;9.40;;;5.72;;
21890;SDS011;11110;52.386;16.940;2023-01-01T13:26:52;9.52;;;5.68;;
21890;SDS011;11110;52.386;16.940;2023-01-01T13:29:29;8.05;;;4.68;;
21890;SDS011;11110;52.386;16.940;2023-01-01T13:32:05;8.95;;;5.60;;
21890;SDS011;11110;52.386;16.940;2023-01-01T13:34:37;7.13;;;4.78;;
21890;SDS011;11110;52.386;16.940;2023-01-01T13:40:29;14.10;;;6.22;;
21890;SDS011;11110;52.386;16.940;2023-01-01T13:43:04;14.60;;;6.00;;
21890;SDS011;11110;52.386;16.940;2023-01-01T13:45:34;8.93;;;5.18;;
21890;SDS011;11110;52.386;16.940;2023-01-01T13:48:32;10.70;;;6.53;;
21890;SDS011;11110;52.386;16.940;2023-01-01T13:51:20;11.77;;;5.70;;
21890;SDS011;11110;52.386;16.940;2023-01-01T13:54:32;10.48;;;6.00;;
21890;SDS011;11110;52.386;16.940;2023-01-01T13:57:19;8.00;;;5.22;;
21890;SDS011;11110;52.386;16.940;2023-01-01T14:00:12;9.80;;;5.75;;
21890;SDS011;11110;52.386;16.940;2023-01-01T14:02:46;9.70;;;5.40;;
21890;SDS011;11110;52.386;16.940;2023-01-01T14:05:26;9.13;;;5.57;;
21890;SDS011;11110;52.386;16.940;2023-01-01T14:07:59;8.23;;;5.18;;
21890;SDS011;11110;52.386;16.940;2023-01-01T14:10:30;11.38;;;5.38;;
21890;SDS011;11110;52.386;16.940;2023-01-01T14:13:12;9.93;;;5.97;;
21890;SDS011;11110;52.386;16.940;2023-01-01T14:15:48;12.93;;;5.50;;
21890;SDS011;11110;52.386;16.940;2023-01-01T14:18:21;8.52;;;5.60;;
21890;SDS011;11110;52.386;16.940;2023-01-01T14:20:54;13.57;;;5.93;;
21890;SDS011;11110;52.386;16.940;2023-01-01T14:23:25;11.20;;;5.13;;
21890;SDS011;11110;52.386;16.940;2023-01-01T14:26:00;13.00;;;6.18;;
21890;SDS011;11110;52.386;16.940;2023-01-01T14:28:31;9.43;;;5.68;;
21890;SDS011;11110;52.386;16.940;2023-01-01T14:31:02;9.00;;;5.43;;
21890;SDS011;11110;52.386;16.940;2023-01-01T14:33:37;11.43;;;6.00;;
21890;SDS011;11110;52.386;16.940;2023-01-01T14:36:20;9.25;;;5.88;;
21890;SDS011;11110;52.386;16.940;2023-01-01T14:38:51;11.55;;;6.45;;
21890;SDS011;11110;52.386;16.940;2023-01-01T14:41:24;9.65;;;5.55;;
21890;SDS011;11110;52.386;16.940;2023-01-01T14:43:56;13.27;;;6.63;;
21890;SDS011;11110;52.386;16.940;2023-01-01T14:46:30;12.23;;;6.53;;
21890;SDS011;11110;52.386;16.940;2023-01-01T14:49:00;11.95;;;6.10;;
21890;SDS011;11110;52.386;16.940;2023-01-01T14:51:35;11.30;;;6.00;;
21890;SDS011;11110;52.386;16.940;2023-01-01T14:54:12;12.10;;;6.32;;
21890;SDS011;11110;52.386;16.940;2023-01-01T14:56:46;12.43;;;6.22;;
21890;SDS011;11110;52.386;16.940;2023-01-01T14:59:20;10.75;;;6.07;;
21890;SDS011;11110;52.386;16.940;2023-01-01T15:01:57;10.88;;;6.25;;
21890;SDS011;11110;52.386;16.940;2023-01-01T15:04:28;12.65;;;7.13;;
21890;SDS011;11110;52.386;16.940;2023-01-01T15:06:57;11.45;;;6.82;;
21890;SDS011;11110;52.386;16.940;2023-01-01T15:09:27;13.02;;;7.10;;
21890;SDS011;11110;52.386;16.940;2023-01-01T15:11:59;13.57;;;8.07;;